Time;durP1;ratioP1;P1;durP2;ratioP2;P2;SDS_P1;SDS_P2;PMS_P1;PMS_P2;Temp;Humidity;BMP_temperature;BMP_pressure;BME280_temperature;BME280_humidity;BME280_pressure;Samples;Min_cycle;Max_cycle;Signal;HPM_P1;HPM_P2
2023/10/19 00:23:02;;;;;;;27.60;24.90;;;11.40;99.90;;;;;;4946555;29;20467;-80
2023/10/19 03:32:22;;;;;;;;;;;;;;;;;;;;;
2023/10/19 03:35:34;;;;;;;26.10;23.50;;;11.20;99.90;;;;;;5028703;28;20435;-82
2023/10/19 03:39:11;;;;;;;25.40;22.83;;;11.50;99.90;;;;;;5001248;28;20474;-80
2023/10/19 03:42:21;;;;;;;24.20;21.80;;;11.20;99.90;;;;;;4992973;28;20440;-82
2023/10/19 03:54:52;;;;;;;23.73;21.23;;;11.50;99.90;;;;;;4988720;28;20425;-80
2023/10/19 03:57:54;;;;;;;24.60;22.00;;;11.40;99.90;;;;;;5023076;28;20463;-79
2023/10/19 04:01:04;;;;;;;;;;;;;;;;;;;;;
2023/10/19 04:03:52;;;;;;;23.43;20.90;;;11.30;99.90;;;;;;5029283;28;20438;-79
2023/10/19 04:25:15;;;;;;;23.40;21.10;;;11.20;99.90;;;;;;4998729;28;20439;-81
2023/10/19 04:28:21;;;;;;;;;;;;;;;;;;;;;
2023/10/19 04:30:59;;;;;;;25.53;22.80;;;11.20;99.90;;;;;;5027140;28;20806;-80
2023/10/19 04:33:47;;;;;;;25.63;22.93;;;11.20;99.90;;;;;;5026440;28;20480;-81
2023/10/19 04:40:02;;;;;;;24.70;22.07;;;11.20;99.90;;;;;;5001257;28;20443;-82
2023/10/19 04:43:03;;;;;;;25.57;23.00;;;11.30;99.90;;;;;;5026351;28;20454;-81
2023/10/19 04:48:52;;;;;;;25.30;22.03;;;11.00;99.90;;;;;;5024752;28;20436;-80
2023/10/19 04:52:06;;;;;;;27.13;23.93;;;11.30;99.90;;;;;;5021980;28;20435;-84
2023/10/19 04:55:18;;;;;;;28.00;23.20;;;11.30;99.90;;;;;;4922965;29;20551;-81
2023/10/19 04:58:38;;;;;;;25.87;22.33;;;11.30;99.90;;;;;;4995181;28;20559;-81
2023/10/19 05:01:33;;;;;;;24.80;21.90;;;11.30;99.90;;;;;;5027120;28;20459;-81
2023/10/19 05:07:48;;;;;;;25.23;22.60;;;11.20;99.90;;;;;;4855360;28;20476;-83
2023/10/19 05:11:03;;;;;;;;;;;;;;;;;;;;;
2023/10/19 05:31:30;;;;;;;;;;;;;;;;;;;;;
2023/10/19 05:34:48;;;;;;;27.37;23.97;;;11.20;99.90;;;;;;4985021;28;20488;-82
2023/10/19 05:37:49;;;;;;;27.80;22.70;;;11.20;99.90;;;;;;4983137;28;20473;-80
2023/10/19 05:40:42;;;;;;;27.60;23.90;;;11.30;99.90;;;;;;4980800;28;20863;-83
2023/10/19 05:43:25;;;;;;;24.87;22.20;;;11.30;99.90;;;;;;4985735;28;20845;-82
2023/10/19 05:49:39;;;;;;;25.07;22.33;;;11.40;99.90;;;;;;4975635;28;20553;-82
2023/10/19 05:52:27;;;;;;;23.97;21.20;;;11.30;99.90;;;;;;4988154;28;20457;-85
2023/10/19 05:55:14;;;;;;;25.97;23.17;;;11.40;99.90;;;;;;4985131;28;20456;-84
2023/10/19 05:57:54;;;;;;;27.00;24.07;;;11.20;99.90;;;;;;4983622;28;20473;-85
2023/10/19 06:01:04;;;;;;;25.73;23.13;;;11.40;99.90;;;;;;4983130;28;20480;-81
2023/10/19 06:03:48;;;;;;;25.00;21.60;;;11.40;99.90;;;;;;4997141;28;20848;-82
2023/10/19 06:09:32;;;;;;;27.17;21.90;;;11.40;99.90;;;;;;5003882;28;20432;-81
2023/10/19 06:12:19;;;;;;;25.27;22.93;;;11.50;99.90;;;;;;5004244;28;20552;-84
2023/10/19 06:15:10;;;;;;;25.87;23.27;;;11.60;99.90;;;;;;5004540;28;20448;-83
2023/10/19 06:17:49;;;;;;;25.87;22.53;;;11.60;99.90;;;;;;5003797;28;20474;-83
2023/10/19 06:20:29;;;;;;;23.97;21.57;;;11.70;99.90;;;;;;5003920;28;20552;-81
2023/10/19 06:23:05;;;;;;;27.50;21.70;;;11.70;99.90;;;;;;5006082;28;20544;-83
2023/10/19 06:25:45;;;;;;;26.30;23.50;;;11.70;99.90;;;;;;5005236;28;20448;-81
2023/10/19 06:28:33;;;;;;;25.07;22.53;;;11.70;99.90;;;;;;5007107;28;20479;-84
2023/10/19 06:31:25;;;;;;;25.27;22.33;;;11.80;99.90;;;;;;5004113;28;20596;-85
2023/10/19 06:34:27;;;;;;;27.90;21.97;;;11.80;99.90;;;;;;5002589;28;20496;-83
2023/10/19 06:37:01;;;;;;;26.23;23.50;;;11.40;99.90;;;;;;4999363;28;20497;-81
2023/10/19 06:39:53;;;;;;;26.47;22.53;;;11.80;99.90;;;;;;4979874;28;20444;-81
2023/10/19 06:42:27;;;;;;;24.27;21.70;;;11.50;99.90;;;;;;5001052;28;20457;-83
2023/10/19 06:45:29;;;;;;;23.40;21.20;;;11.80;99.90;;;;;;4999840;28;20490;-85
2023/10/19 06:48:04;;;;;;;24.97;22.47;;;11.80;99.90;;;;;;5002164;28;20476;-84
2023/10/19 06:51:00;;;;;;;25.53;22.67;;;12.00;99.90;;;;;;5000560;28;20452;-84
2023/10/19 06:53:39;;;;;;;24.60;21.80;;;11.80;99.90;;;;;;5001905;28;20498;-82
2023/10/19 06:56:32;;;;;;;;;;;;;;;;;;;;;
2023/10/19 07:01:58;;;;;;;24.57;21.77;;;11.90;99.90;;;;;;4988005;28;20787;-84
2023/10/19 07:04:44;;;;;;;23.93;21.43;;;11.90;99.90;;;;;;4999984;28;20444;-83
2023/10/19 07:07:29;;;;;;;25.57;22.87;;;12.00;99.90;;;;;;5000141;28;20503;-83
2023/10/19 07:10:26;;;;;;;24.00;21.40;;;12.00;99.90;;;;;;4997376;28;20473;-82
2023/10/19 07:13:11;;;;;;;25.70;22.70;;;12.00;99.90;;;;;;4996790;28;20480;-84
2023/10/19 07:15:57;;;;;;;24.53;22.03;;;12.00;99.90;;;;;;4998775;28;20499;-82
2023/10/19 07:18:38;;;;;;;25.83;23.13;;;11.80;99.90;;;;;;4998904;28;20452;-84
2023/10/19 07:21:42;;;;;;;26.50;23.70;;;12.00;99.90;;;;;;5000062;28;20467;-86
2023/10/19 07:24:36;;;;;;;24.53;21.87;;;12.10;99.90;;;;;;5000848;28;20448;-85
2023/10/19 07:27:18;;;;;;;30.07;23.90;;;12.10;99.90;;;;;;4984728;28;20473;-85
2023/10/19 07:29:59;;;;;;;28.47;23.07;;;12.10;99.90;;;;;;5000582;28;20464;-84
2023/10/19 07:32:38;;;;;;;23.63;21.13;;;12.10;99.90;;;;;;4999634;28;20456;-82
2023/10/19 07:35:37;;;;;;;25.50;22.80;;;12.30;99.90;;;;;;4998823;28;20452;-85
2023/10/19 07:38:20;;;;;;;29.60;23.83;;;12.20;99.90;;;;;;4998992;28;20484;-86
2023/10/19 07:41:05;;;;;;;31.43;23.17;;;12.30;99.90;;;;;;5005006;28;20433;-82
2023/10/19 07:43:46;;;;;;;26.00;22.57;;;12.30;99.90;;;;;;4999682;28;20450;-83
2023/10/19 07:46:24;;;;;;;24.70;22.27;;;12.40;99.90;;;;;;4996657;28;20472;-82
2023/10/19 07:49:02;;;;;;;25.63;22.90;;;12.30;99.90;;;;;;4999083;28;20456;-84
2023/10/19 07:51:55;;;;;;;25.73;21.83;;;12.50;99.90;;;;;;4998377;28;20865;-82
2023/10/19 07:54:30;;;;;;;24.43;21.83;;;12.50;99.90;;;;;;4996101;28;20479;-85
2023/10/19 07:57:15;;;;;;;25.57;22.70;;;12.60;99.90;;;;;;4996701;28;20478;-82
2023/10/19 07:59:51;;;;;;;42.33;23.50;;;12.60;99.90;;;;;;4997177;28;20479;-82
2023/10/19 08:02:37;;;;;;;27.30;22.97;;;12.70;99.90;;;;;;4997433;28;20511;-83
2023/10/19 08:05:25;;;;;;;24.67;22.07;;;12.90;99.90;;;;;;4998965;28;20939;-82
2023/10/19 08:08:00;;;;;;;25.27;22.57;;;13.00;99.90;;;;;;5001002;28;20503;-82
2023/10/19 08:10:38;;;;;;;25.00;22.50;;;13.10;99.90;;;;;;5005809;28;20459;-84
2023/10/19 08:13:14;;;;;;;25.47;22.70;;;13.10;99.90;;;;;;4999049;28;20707;-84
2023/10/19 08:15:55;;;;;;;25.97;23.20;;;13.40;99.90;;;;;;4997777;28;20942;-83
2023/10/19 08:18:41;;;;;;;24.60;22.00;;;13.20;99.90;;;;;;5002467;28;20457;-81
2023/10/19 08:21:24;;;;;;;23.90;21.70;;;13.30;99.90;;;;;;5004772;28;20453;-83
2023/10/19 08:27:09;;;;;;;22.60;20.20;;;13.30;99.90;;;;;;5001778;28;20464;-85
2023/10/19 08:29:46;;;;;;;39.37;23.10;;;13.80;99.90;;;;;;5000551;28;20543;-82
2023/10/19 08:32:27;;;;;;;22.03;19.97;;;14.10;99.90;;;;;;5001293;28;20456;-84
2023/10/19 08:35:20;;;;;;;20.63;18.70;;;14.00;99.90;;;;;;5003946;28;20537;-83
2023/10/19 08:37:58;;;;;;;21.07;19.17;;;14.20;99.90;;;;;;5004716;28;20978;-85
2023/10/19 08:40:51;;;;;;;19.73;17.90;;;14.50;99.90;;;;;;5005761;28;20475;-82
2023/10/19 08:43:55;;;;;;;;;;;;;;;;;;;;;
2023/10/19 08:46:59;;;;;;;18.20;16.30;;;14.90;99.90;;;;;;5007415;28;20478;-85
2023/10/19 08:50:01;;;;;;;16.93;15.23;;;15.10;99.90;;;;;;4985014;28;20463;-81
2023/10/19 09:13:07;;;;;;;13.87;12.80;;;16.70;99.90;;;;;;4998231;28;20451;-83
2023/10/19 09:16:08;;;;;;;14.83;13.53;;;17.00;99.90;;;;;;4949434;29;20459;-81
2023/10/19 09:22:36;;;;;;;13.07;11.80;;;17.50;99.90;;;;;;5001007;28;20443;-82
2023/10/19 09:25:25;;;;;;;14.13;11.80;;;17.70;99.90;;;;;;5007441;28;20452;-82
2023/10/19 09:28:24;;;;;;;12.53;11.30;;;17.80;99.90;;;;;;5003436;28;20499;-82
2023/10/19 09:44:49;;;;;;;17.40;12.00;;;18.30;99.90;;;;;;5004154;28;20460;-85
2023/10/19 09:47:54;;;;;;;13.60;11.00;;;18.20;99.90;;;;;;5004501;28;20467;-83
2023/10/19 09:50:58;;;;;;;10.37;9.13;;;18.30;99.90;;;;;;5003478;28;20447;-84
2023/10/19 10:04:41;;;;;;;15.90;8.60;;;18.70;99.90;;;;;;5003452;28;20444;-84
2023/10/19 10:18:32;;;;;;;9.20;8.30;;;18.60;99.90;;;;;;5070505;28;20504;-85
2023/10/19 10:21:41;;;;;;;8.70;7.80;;;18.60;99.90;;;;;;5068511;28;20445;-82
2023/10/19 10:24:33;;;;;;;8.90;8.13;;;18.60;99.90;;;;;;5070165;28;20442;-82
2023/10/19 10:27:32;;;;;;;8.17;7.37;;;18.50;99.90;;;;;;5060094;28;20470;-83
2023/10/19 10:30:40;;;;;;;6.80;6.00;;;18.40;99.90;;;;;;5057638;28;20453;-85
2023/10/19 10:34:08;;;;;;;8.10;7.30;;;18.50;99.90;;;;;;5058646;28;21100;-85
2023/10/19 10:37:37;;;;;;;8.60;7.70;;;18.70;99.90;;;;;;5054010;28;20465;-83
2023/10/19 10:40:37;;;;;;;11.30;7.73;;;18.70;99.90;;;;;;5059684;28;20449;-85
2023/10/19 10:43:30;;;;;;;9.63;7.70;;;18.80;99.90;;;;;;5061384;28;20446;-82
2023/10/19 10:53:48;;;;;;;9.83;6.27;;;18.70;99.90;;;;;;5003116;28;20487;-86
2023/10/19 11:04:00;;;;;;;6.47;5.87;;;18.70;99.90;;;;;;5054291;28;20442;-85
2023/10/19 11:10:37;;;;;;;5.70;5.10;;;18.50;99.90;;;;;;4948435;28;20931;-81
2023/10/19 11:17:17;;;;;;;5.50;5.00;;;18.40;99.90;;;;;;4999234;28;20448;-85
2023/10/19 11:19:56;;;;;;;7.30;5.53;;;18.20;99.90;;;;;;5059788;28;20458;-85
2023/10/19 11:22:53;;;;;;;6.77;6.17;;;18.40;99.90;;;;;;5061798;28;20433;-86
2023/10/19 11:25:42;;;;;;;6.07;5.60;;;18.30;99.90;;;;;;5049270;28;20523;-84
2023/10/19 11:28:42;;;;;;;7.50;6.10;;;18.30;99.90;;;;;;5048854;28;20471;-82
2023/10/19 11:31:40;;;;;;;6.47;5.90;;;18.20;99.90;;;;;;5048800;28;20448;-84
2023/10/19 11:34:50;;;;;;;11.73;7.20;;;18.20;99.90;;;;;;5051962;28;20446;-86
2023/10/19 11:37:52;;;;;;;8.00;5.90;;;18.10;99.90;;;;;;5046881;28;20465;-83
2023/10/19 11:41:13;;;;;;;;;;;;;;;;;;;;;
2023/10/19 11:44:36;;;;;;;;;;;;;;;;;;;;;
2023/10/19 11:47:58;;;;;;;9.23;6.33;;;18.00;99.90;;;;;;5046017;28;20477;-84
2023/10/19 11:54:16;;;;;;;9.00;6.53;;;17.60;99.90;;;;;;5043757;28;20501;-80
2023/10/19 11:57:12;;;;;;;8.07;7.30;;;17.70;99.90;;;;;;5047312;28;20497;-83
2023/10/19 12:00:10;;;;;;;8.30;7.50;;;17.70;99.90;;;;;;5045903;28;20442;-82
2023/10/19 12:08:45;;;;;;;9.17;8.37;;;17.40;99.90;;;;;;5047068;28;20477;-83
2023/10/19 12:11:30;;;;;;;9.60;8.80;;;17.30;99.90;;;;;;5052885;28;20501;-80
2023/10/19 12:14:11;;;;;;;10.10;9.30;;;17.10;99.90;;;;;;5050738;28;20491;-83
2023/10/19 12:16:55;;;;;;;10.60;9.70;;;17.00;99.90;;;;;;5046249;28;20899;-81
2023/10/19 12:19:38;;;;;;;11.47;10.40;;;17.10;99.90;;;;;;5044633;28;21007;-83
2023/10/19 12:22:28;;;;;;;12.50;9.77;;;17.10;99.90;;;;;;5041653;28;20458;-81
2023/10/19 12:25:10;;;;;;;12.23;10.13;;;17.00;99.90;;;;;;5040038;28;20890;-81
2023/10/19 12:28:07;;;;;;;12.33;11.10;;;17.00;99.90;;;;;;5036354;28;20509;-81
2023/10/19 12:31:27;;;;;;;12.23;11.00;;;16.80;99.90;;;;;;5035925;28;20531;-80
2023/10/19 12:37:46;;;;;;;11.07;9.90;;;17.00;99.90;;;;;;5024346;28;20466;-82
2023/10/19 12:43:52;;;;;;;11.70;10.50;;;16.90;99.90;;;;;;5042440;28;20438;-82
2023/10/19 12:49:45;;;;;;;11.97;9.90;;;16.60;99.90;;;;;;5033858;28;20443;-80
2023/10/19 12:53:06;;;;;;;10.83;9.70;;;16.60;99.90;;;;;;5045062;28;20481;-84
2023/10/19 12:55:50;;;;;;;10.80;9.80;;;16.50;99.90;;;;;;5040799;28;20541;-80
2023/10/19 13:05:03;;;;;;;9.80;8.83;;;16.60;99.90;;;;;;5040733;28;20454;-85
2023/10/19 13:08:16;;;;;;;9.80;8.90;;;16.50;99.90;;;;;;5042087;28;20463;-82
2023/10/19 13:22:00;;;;;;;9.57;8.77;;;16.50;99.90;;;;;;4847658;28;20454;-85
2023/10/19 13:24:31;;;;;;;10.30;9.50;;;16.70;99.90;;;;;;5004010;28;20452;-80
2023/10/19 13:31:11;;;;;;;;;;;;;;;;;;;;;
2023/10/19 13:34:40;;;;;;;10.60;9.30;;;16.30;99.90;;;;;;5001383;28;20496;-83
2023/10/19 13:40:34;;;;;;;11.97;10.80;;;16.50;99.90;;;;;;4960552;28;20483;-83
2023/10/19 13:43:13;;;;;;;11.90;10.60;;;16.50;99.90;;;;;;5039189;28;20470;-85
2023/10/19 13:45:54;;;;;;;10.53;9.63;;;16.50;99.90;;;;;;5041936;28;20438;-81
2023/10/19 13:48:29;;;;;;;11.90;10.90;;;16.50;99.90;;;;;;5042389;28;20507;-84
2023/10/19 13:51:16;;;;;;;11.67;10.63;;;16.20;99.90;;;;;;5041927;28;20461;-82
2023/10/19 13:53:51;;;;;;;12.17;10.93;;;16.50;99.90;;;;;;5041453;28;20473;-84
2023/10/19 13:56:35;;;;;;;12.23;10.30;;;16.40;99.90;;;;;;5042002;28;20462;-83
2023/10/19 13:59:10;;;;;;;12.20;11.20;;;16.40;99.90;;;;;;5042648;28;20426;-84
2023/10/19 14:05:24;;;;;;;14.17;11.60;;;16.40;99.90;;;;;;5025481;28;20438;-84
2023/10/19 14:15:19;;;;;;;12.47;11.47;;;16.50;99.90;;;;;;4938991;28;20438;-82
2023/10/19 14:18:38;;;;;;;12.50;11.40;;;16.30;99.90;;;;;;4996896;28;20536;-84
2023/10/19 14:21:40;;;;;;;12.40;11.33;;;16.40;99.90;;;;;;5026277;28;20461;-85
2023/10/19 15:04:33;;;;;;;13.67;12.37;;;16.00;99.90;;;;;;5021786;28;20536;-85
2023/10/19 15:07:32;;;;;;;12.37;11.43;;;16.00;99.90;;;;;;5033773;28;20552;-85
2023/10/19 15:10:32;;;;;;;12.80;11.77;;;16.20;99.90;;;;;;5060014;28;20422;-81
2023/10/19 15:16:23;;;;;;;12.47;11.47;;;16.00;99.90;;;;;;5053173;28;20509;-86
2023/10/19 15:22:53;;;;;;;12.70;11.40;;;15.80;99.90;;;;;;5054224;28;20457;-83
2023/10/19 16:25:30;;;;;;;5.50;5.10;;;16.00;99.90;;;;;;4717468;30;20445;-84
2023/10/19 16:42:10;;;;;;;5.20;4.80;;;16.10;99.90;;;;;;4912321;29;20985;-83
2023/10/19 16:59:51;;;;;;;7.80;7.20;;;15.90;99.90;;;;;;4982073;28;20478;-82
2023/10/19 17:06:12;;;;;;;8.10;7.30;;;15.90;99.90;;;;;;4921935;29;20456;-83
2023/10/19 17:08:55;;;;;;;9.03;8.07;;;16.10;99.90;;;;;;4923321;29;20516;-83
2023/10/19 17:12:32;;;;;;;8.63;7.93;;;15.90;99.90;;;;;;4957281;29;20438;-82
2023/10/19 17:15:34;;;;;;;9.13;8.33;;;15.70;99.90;;;;;;4947805;29;20451;-81
2023/10/19 17:18:39;;;;;;;;;;;;;;;;;;;;;
2023/10/19 17:21:31;;;;;;;9.90;8.37;;;15.80;99.90;;;;;;5026552;28;20884;-85
2023/10/19 17:30:28;;;;;;;11.00;10.00;;;15.80;99.90;;;;;;4896248;29;20432;-84
2023/10/19 17:43:24;;;;;;;10.03;7.83;;;15.40;99.90;;;;;;4794170;29;20450;-82
2023/10/19 17:45:53;;;;;;;9.03;8.23;;;15.60;99.90;;;;;;4947954;29;20591;-82
2023/10/19 17:48:22;;;;;;;10.20;9.20;;;15.60;99.90;;;;;;4986092;28;20436;-84
2023/10/19 17:51:15;;;;;;;19.17;17.13;;;15.30;99.90;;;;;;5001262;28;20440;-83
2023/10/19 17:53:46;;;;;;;10.47;9.50;;;15.60;99.90;;;;;;5001086;28;20491;-80
2023/10/19 17:56:14;;;;;;;16.43;14.80;;;15.60;99.90;;;;;;4998783;28;20484;-80
2023/10/19 17:58:45;;;;;;;11.30;10.20;;;15.60;99.90;;;;;;4998661;28;20479;-80
2023/10/19 18:01:14;;;;;;;10.70;9.80;;;15.60;99.90;;;;;;4998656;28;20440;-81
2023/10/19 18:03:58;;;;;;;10.70;9.80;;;15.50;99.90;;;;;;5015664;28;20444;-83
2023/10/19 18:06:46;;;;;;;13.10;9.47;;;15.50;99.90;;;;;;5023814;28;20459;-81
2023/10/19 18:09:24;;;;;;;9.80;8.80;;;15.60;99.90;;;;;;5025751;28;20452;-81
2023/10/19 18:11:56;;;;;;;9.63;8.83;;;15.50;99.90;;;;;;5024890;28;20438;-85
2023/10/19 18:17:50;;;;;;;9.90;9.03;;;15.40;99.90;;;;;;5022355;28;20510;-81
2023/10/19 18:20:26;;;;;;;10.30;9.30;;;15.40;99.90;;;;;;5024004;28;20450;-81
2023/10/19 18:23:02;;;;;;;10.97;9.40;;;15.40;99.90;;;;;;5022270;28;20502;-82
2023/10/19 18:25:31;;;;;;;10.60;9.50;;;15.60;99.90;;;;;;5023272;28;20497;-83
2023/10/19 18:28:04;;;;;;;10.30;9.30;;;15.60;99.90;;;;;;5023299;28;20502;-83
2023/10/19 18:30:40;;;;;;;11.07;9.70;;;15.40;99.90;;;;;;5024634;28;20447;-81
2023/10/19 18:33:09;;;;;;;10.17;9.27;;;15.40;99.90;;;;;;5025456;28;20455;-85
2023/10/19 18:39:19;;;;;;;10.33;9.33;;;15.20;99.90;;;;;;5026303;28;20428;-83
2023/10/19 18:42:34;;;;;;;10.50;9.53;;;15.20;99.90;;;;;;5030103;28;20507;-82
2023/10/19 18:45:27;;;;;;;10.47;9.47;;;15.20;99.90;;;;;;5010802;28;20426;-84
2023/10/19 18:48:24;;;;;;;10.73;9.67;;;15.20;99.90;;;;;;5037540;28;20431;-82
2023/10/19 18:51:20;;;;;;;10.00;9.10;;;15.30;99.90;;;;;;5035889;28;20447;-81
2023/10/19 18:56:51;;;;;;;9.60;8.60;;;15.30;99.90;;;;;;5033030;28;20477;-81
2023/10/19 18:59:24;;;;;;;9.60;8.77;;;15.30;99.90;;;;;;5037976;28;20458;-81
2023/10/19 19:01:59;;;;;;;9.73;9.00;;;15.30;99.90;;;;;;5038094;28;20426;-83
2023/10/19 19:04:50;;;;;;;16.23;9.70;;;15.10;99.90;;;;;;5038426;28;20539;-84
2023/10/19 19:07:37;;;;;;;9.90;8.97;;;15.30;99.90;;;;;;5038012;28;20460;-84
2023/10/19 19:10:34;;;;;;;10.37;9.57;;;15.30;99.90;;;;;;5038148;28;20435;-82
2023/10/19 19:13:18;;;;;;;;;;;;;;;;;;;;;
2023/10/19 19:48:25;;;;;;;15.13;13.63;;;15.10;99.90;;;;;;4965805;28;20454;-81
2023/10/19 19:54:55;;;;;;;15.23;13.83;;;15.10;99.90;;;;;;4973267;29;20430;-81
2023/10/19 20:07:54;;;;;;;16.83;15.23;;;15.00;99.90;;;;;;4975504;28;20523;-80
2023/10/19 20:11:08;;;;;;;15.50;13.90;;;15.00;99.90;;;;;;4975536;29;20483;-82
2023/10/19 20:14:21;;;;;;;14.87;13.37;;;14.70;99.90;;;;;;4938739;29;20559;-83
2023/10/19 20:30:12;;;;;;;21.53;19.30;;;14.70;99.90;;;;;;5124868;28;20237;-81
2023/10/19 20:41:42;;;;;;;15.47;14.10;;;15.00;99.90;;;;;;4377708;27;22469752;-82
2023/10/19 20:45:18;;;;;;;;;;;;;;;;;;;;;
2023/10/19 20:48:33;;;;;;;;;;;;;;;;;;;;;
2023/10/19 20:54:58;;;;;;;12.40;11.40;;;14.90;99.90;;;;;;5062854;28;20428;-82
2023/10/19 21:04:58;;;;;;;13.40;12.20;;;14.60;99.90;;;;;;5129008;28;20780;-80
2023/10/19 21:11:33;;;;;;;16.23;14.73;;;14.90;99.90;;;;;;5022809;28;20442;-81
2023/10/19 21:17:36;;;;;;;17.83;16.33;;;14.80;99.90;;;;;;5118920;28;20465;-79
2023/10/19 21:20:15;;;;;;;16.80;15.10;;;15.00;99.90;;;;;;5132654;28;20673;-81
2023/10/19 21:22:47;;;;;;;16.87;15.37;;;14.70;99.90;;;;;;5133061;28;20457;-82
2023/10/19 21:25:48;;;;;;;16.57;14.97;;;14.80;99.90;;;;;;5134013;28;20535;-81
2023/10/19 21:28:54;;;;;;;;;;;;;;;;;;;;;
2023/10/19 21:32:18;;;;;;;22.10;20.10;;;14.50;99.90;;;;;;5136320;28;20426;-79
2023/10/19 21:38:20;;;;;;;17.17;15.57;;;14.60;99.90;;;;;;5121978;28;20466;-83
2023/10/19 21:41:19;;;;;;;16.80;15.10;;;14.60;99.90;;;;;;5132102;28;20534;-81
2023/10/19 21:44:33;;;;;;;16.10;14.57;;;14.60;99.90;;;;;;5132814;28;20452;-80
2023/10/19 21:50:35;;;;;;;16.87;15.43;;;14.60;99.90;;;;;;5127006;28;20476;-81
2023/10/19 21:56:36;;;;;;;18.70;17.00;;;14.60;99.90;;;;;;5119545;28;20438;-80
2023/10/19 21:59:30;;;;;;;17.37;15.80;;;14.60;99.90;;;;;;5122193;28;20494;-80
2023/10/19 22:02:25;;;;;;;16.70;15.20;;;14.50;99.90;;;;;;5123276;28;20963;-80
2023/10/19 22:05:27;;;;;;;16.90;15.30;;;14.50;99.90;;;;;;5102699;28;20678;-79
2023/10/19 22:08:26;;;;;;;16.17;14.67;;;14.50;99.90;;;;;;5104640;28;20468;-80
2023/10/19 22:11:05;;;;;;;16.50;15.00;;;14.50;99.90;;;;;;5099929;28;20505;-80
2023/10/19 22:13:48;;;;;;;17.00;15.40;;;14.50;99.90;;;;;;5098617;28;20454;-79
2023/10/19 22:16:49;;;;;;;;;;;;;;;;;;;;;
2023/10/19 22:19:42;;;;;;;15.80;14.33;;;14.50;99.90;;;;;;5098448;28;20484;-78
2023/10/19 22:22:42;;;;;;;17.93;16.33;;;14.50;99.90;;;;;;5098248;28;20451;-80
2023/10/19 22:25:51;;;;;;;15.87;14.47;;;14.50;99.90;;;;;;5097643;28;20447;-79
2023/10/19 22:28:45;;;;;;;17.60;15.93;;;14.50;99.90;;;;;;5097499;28;20452;-80
2023/10/19 22:31:56;;;;;;;14.30;13.00;;;14.70;99.90;;;;;;5096260;28;20622;-80
2023/10/19 22:34:49;;;;;;;14.43;13.13;;;14.50;99.90;;;;;;5097095;28;20455;-82
2023/10/19 22:38:00;;;;;;;15.70;14.23;;;14.50;99.90;;;;;;5096984;28;21029;-81
2023/10/19 22:40:47;;;;;;;16.50;15.00;;;14.50;99.90;;;;;;5096527;28;20475;-78
2023/10/19 22:43:54;;;;;;;15.40;13.80;;;14.50;99.90;;;;;;5097991;28;20513;-79
2023/10/19 22:46:48;;;;;;;16.40;15.00;;;14.50;99.90;;;;;;5100634;28;20497;-80
2023/10/19 22:49:31;;;;;;;16.10;14.60;;;14.50;99.90;;;;;;5106473;28;20467;-82
2023/10/19 22:52:35;;;;;;;16.67;15.33;;;14.50;99.90;;;;;;5107938;28;20440;-80
2023/10/19 22:55:17;;;;;;;16.80;15.27;;;14.40;99.90;;;;;;5105961;28;20451;-79
2023/10/19 22:58:01;;;;;;;17.83;16.13;;;14.40;99.90;;;;;;5104487;28;20503;-82
2023/10/19 23:04:06;;;;;;;19.80;17.90;;;14.40;99.90;;;;;;5103384;28;20450;-80
2023/10/19 23:06:46;;;;;;;17.30;15.70;;;14.40;99.90;;;;;;5119541;28;20467;-80
2023/10/19 23:09:28;;;;;;;18.27;16.70;;;14.40;99.90;;;;;;5119917;28;20476;-79
2023/10/19 23:12:15;;;;;;;17.97;16.23;;;14.40;99.90;;;;;;5118610;28;20442;-80
2023/10/19 23:14:54;;;;;;;17.40;15.80;;;14.40;99.90;;;;;;5117448;28;20444;-79
2023/10/19 23:17:42;;;;;;;19.27;17.57;;;14.40;99.90;;;;;;5116000;28;20543;-80
2023/10/19 23:20:27;;;;;;;18.23;16.53;;;14.40;99.90;;;;;;5115899;28;20479;-80
2023/10/19 23:23:11;;;;;;;17.03;15.57;;;14.10;99.90;;;;;;5119482;28;20473;-80
2023/10/19 23:26:00;;;;;;;18.17;16.43;;;14.40;99.90;;;;;;5128469;28;20471;-80
2023/10/19 23:32:00;;;;;;;16.73;15.23;;;14.30;99.90;;;;;;5124105;28;20438;-80
2023/10/19 23:34:48;;;;;;;16.93;15.47;;;14.30;99.90;;;;;;5125301;28;20515;-80
2023/10/19 23:37:42;;;;;;;17.07;15.60;;;14.30;99.90;;;;;;5125456;28;20500;-80
2023/10/19 23:40:35;;;;;;;15.70;14.40;;;14.30;99.90;;;;;;5124535;28;20478;-79
2023/10/19 23:43:30;;;;;;;16.07;14.60;;;14.30;99.90;;;;;;5123692;28;20455;-80
2023/10/19 23:46:37;;;;;;;14.90;13.47;;;14.30;99.90;;;;;;5123559;28;20454;-81
2023/10/19 23:49:49;;;;;;;15.77;14.23;;;14.30;99.90;;;;;;5122020;28;20457;-80
2023/10/19 23:52:38;;;;;;;13.13;11.87;;;14.30;99.90;;;;;;5120881;28;20450;-81
2023/10/19 23:55:24;;;;;;;14.67;13.47;;;14.30;99.90;;;;;;5120892;28;20447;-80
2023/10/19 23:58:13;;;;;;;14.50;12.90;;;14.30;99.90;;;;;;5121429;28;20475;-80
